Time;durP1;ratioP1;P1;durP2;ratioP2;P2;SDS_P1;SDS_P2;PMS_P1;PMS_P2;Temp;Humidity;BMP_temperature;BMP_pressure;BME280_temperature;BME280_humidity;BME280_pressure;Samples;Min_cycle;Max_cycle;Signal;HPM_P1;HPM_P2
2023/06/09 00:02:13;;;;;;;5.68;2.70;;;;;;;14.94;100.00;92949.84;5088092;28;20044;-78
2023/06/09 00:04:41;;;;;;;4.82;2.70;;;;;;;14.85;100.00;92929.84;5076245;28;20111;-78
2023/06/09 00:07:07;;;;;;;5.47;2.97;;;;;;;14.91;100.00;92936.63;5068033;28;20488;-78
2023/06/09 00:09:34;;;;;;;3.55;2.00;;;;;;;14.87;100.00;92938.94;5068337;28;20345;-77
2023/06/09 00:12:02;;;;;;;5.38;2.67;;;;;;;14.88;100.00;92931.94;5068158;28;20048;-78
2023/06/09 00:14:28;;;;;;;6.57;3.05;;;;;;;14.78;100.00;92933.41;5067743;28;20420;-78
2023/06/09 00:16:59;;;;;;;4.97;2.78;;;;;;;14.84;100.00;92941.97;5067586;28;20049;-78
2023/06/09 00:19:27;;;;;;;4.43;2.40;;;;;;;14.76;100.00;92930.25;5067559;28;20119;-78
2023/06/09 00:21:54;;;;;;;4.60;2.58;;;;;;;14.81;100.00;92937.28;5067809;28;20127;-78
2023/06/09 00:24:23;;;;;;;5.65;2.50;;;;;;;14.76;100.00;92932.09;5067709;28;20044;-77
2023/06/09 00:26:54;;;;;;;4.10;2.95;;;;;;;14.80;100.00;92931.34;5067745;28;20044;-77
2023/06/09 00:29:22;;;;;;;5.28;2.97;;;;;;;14.77;100.00;92925.88;5078249;28;20496;-77
2023/06/09 00:31:49;;;;;;;4.88;2.95;;;;;;;14.75;100.00;92931.28;5087472;28;20043;-77
2023/06/09 00:34:17;;;;;;;4.32;2.50;;;;;;;14.72;100.00;92933.56;5078370;28;20048;-77
2023/06/09 00:36:44;;;;;;;3.97;2.15;;;;;;;14.73;100.00;92929.94;5067298;28;20044;-77
2023/06/09 00:39:11;;;;;;;5.90;2.55;;;;;;;14.75;100.00;92931.28;5067405;28;20090;-77
2023/06/09 00:41:38;;;;;;;6.25;2.92;;;;;;;14.77;100.00;92933.63;5067346;28;20497;-77
2023/06/09 00:44:05;;;;;;;5.30;2.83;;;;;;;14.78;100.00;92930.81;5077589;28;20442;-77
2023/06/09 00:46:33;;;;;;;7.93;2.72;;;;;;;14.84;100.00;92934.22;5087419;28;20036;-77
2023/06/09 00:49:00;;;;;;;6.43;2.88;;;;;;;14.88;100.00;92930.13;5087880;28;20052;-77
2023/06/09 00:51:29;;;;;;;4.38;2.25;;;;;;;14.88;100.00;92929.34;5087221;28;20071;-77
2023/06/09 00:53:56;;;;;;;8.23;2.72;;;;;;;14.86;100.00;92923.66;5087459;28;20051;-77
2023/06/09 00:56:24;;;;;;;7.30;2.50;;;;;;;14.85;100.00;92927.25;5087274;28;20047;-77
2023/06/09 00:58:51;;;;;;;4.30;2.17;;;;;;;14.84;100.00;92923.88;5087217;28;20430;-77
2023/06/09 01:01:18;;;;;;;5.60;2.20;;;;;;;14.81;100.00;92925.16;5087118;28;20040;-77
2023/06/09 01:03:46;;;;;;;5.55;2.33;;;;;;;14.74;100.00;92919.38;5087177;28;20093;-78
2023/06/09 01:06:30;;;;;;;4.22;2.08;;;;;;;14.76;100.00;92924.31;5087016;28;20776;-78
2023/06/09 01:09:02;;;;;;;6.38;2.63;;;;;;;14.72;100.00;92926.56;5086973;28;20062;-78
2023/06/09 01:11:34;;;;;;;4.05;2.17;;;;;;;14.72;100.00;92923.22;5087264;28;20504;-78
2023/06/09 01:14:07;;;;;;;12.40;4.07;;;;;;;14.71;100.00;92919.84;5087098;28;20063;-77
2023/06/09 01:16:42;;;;;;;6.80;3.40;;;;;;;14.70;100.00;92931.22;5089049;28;20531;-78
2023/06/09 01:19:20;;;;;;;6.22;3.40;;;;;;;14.71;100.00;92932.75;5090993;28;20496;-78
2023/06/09 01:21:54;;;;;;;6.55;3.15;;;;;;;14.68;100.00;92921.09;5090751;28;20044;-78
2023/06/09 01:24:35;;;;;;;7.43;3.42;;;;;;;14.62;100.00;92922.06;5090889;28;20051;-78
2023/06/09 01:27:05;;;;;;;6.72;3.58;;;;;;;14.66;100.00;92938.66;5090468;28;20557;-77
2023/06/09 01:29:34;;;;;;;6.95;3.78;;;;;;;14.55;100.00;92930.00;5091202;28;20127;-77
2023/06/09 01:32:03;;;;;;;7.45;3.47;;;;;;;14.62;100.00;92931.66;5090740;28;20055;-78
2023/06/09 01:34:31;;;;;;;6.55;4.00;;;;;;;14.59;100.00;92932.91;5090872;28;20135;-78
2023/06/09 01:36:58;;;;;;;7.50;3.53;;;;;;;14.60;100.00;92933.66;5090438;28;20051;-78
2023/06/09 01:39:26;;;;;;;6.40;3.47;;;;;;;14.55;100.00;92934.41;5090520;28;20044;-78
2023/06/09 01:41:53;;;;;;;5.32;2.85;;;;;;;14.50;100.00;92927.38;5090531;28;20048;-78
2023/06/09 01:44:21;;;;;;;5.95;2.85;;;;;;;14.48;100.00;92928.66;5091006;28;20048;-78
2023/06/09 01:46:48;;;;;;;4.75;2.92;;;;;;;14.49;100.00;92932.78;5091006;28;20047;-78
2023/06/09 01:49:22;;;;;;;5.32;2.72;;;;;;;14.37;100.00;92905.25;5090304;28;20491;-78
2023/06/09 01:51:52;;;;;;;3.67;2.30;;;;;;;14.52;100.00;92925.31;5090683;28;20504;-79
2023/06/09 01:54:24;;;;;;;4.55;2.20;;;;;;;14.45;100.00;92916.97;5090483;28;20101;-77
2023/06/09 01:56:57;;;;;;;4.00;2.40;;;;;;;14.48;100.00;92929.41;5077930;28;20117;-77
2023/06/09 01:59:30;;;;;;;3.78;2.25;;;;;;;14.46;100.00;92915.94;5084247;28;20056;-77
2023/06/09 02:01:59;;;;;;;4.25;2.33;;;;;;;14.41;100.00;92916.66;5090614;28;20048;-77
2023/06/09 02:04:28;;;;;;;7.70;2.90;;;;;;;14.41;100.00;92921.81;5089909;28;20047;-77
2023/06/09 02:06:55;;;;;;;4.25;2.30;;;;;;;14.37;100.00;92915.59;5090220;28;20048;-76
2023/06/09 02:09:23;;;;;;;4.45;1.88;;;;;;;14.26;100.00;92901.75;5090212;28;20031;-77
2023/06/09 02:11:51;;;;;;;4.00;2.13;;;;;;;14.34;100.00;92920.47;5089700;28;20511;-77
2023/06/09 02:14:18;;;;;;;5.03;2.25;;;;;;;14.33;100.00;92918.88;5090183;28;20068;-77
2023/06/09 02:16:48;;;;;;;4.50;2.10;;;;;;;14.13;100.00;92892.56;5090005;28;20492;-77
2023/06/09 02:19:15;;;;;;;3.85;2.85;;;;;;;14.27;100.00;92910.31;5090134;28;20043;-77
2023/06/09 02:21:42;;;;;;;6.43;2.80;;;;;;;14.24;100.00;92915.94;5090200;28;20054;-77
2023/06/09 02:24:09;;;;;;;5.50;2.88;;;;;;;14.16;100.00;92912.75;5089538;28;20098;-77
2023/06/09 02:26:36;;;;;;;5.80;2.65;;;;;;;14.16;100.00;92917.91;5089869;28;20060;-77
2023/06/09 02:29:03;;;;;;;4.20;1.95;;;;;;;14.13;100.00;92920.19;5088933;28;20048;-77
2023/06/09 02:31:31;;;;;;;4.97;2.42;;;;;;;14.09;100.00;92924.28;5089932;28;20048;-79
2023/06/09 02:33:59;;;;;;;6.80;2.80;;;;;;;14.00;100.00;92924.69;5089455;28;20434;-79
2023/06/09 02:36:26;;;;;;;4.07;2.25;;;;;;;13.97;100.00;92924.34;5089453;28;20098;-79
2023/06/09 02:38:54;;;;;;;6.80;2.63;;;;;;;13.87;100.00;92912.88;5089608;28;20131;-79
2023/06/09 02:41:21;;;;;;;5.45;2.50;;;;;;;13.85;100.00;92914.16;5089854;28;20044;-79
2023/06/09 02:43:48;;;;;;;5.70;2.88;;;;;;;13.84;100.00;92922.91;5089177;28;20121;-78
2023/06/09 02:46:17;;;;;;;4.40;3.08;;;;;;;13.84;100.00;92926.25;5089548;28;20051;-78
2023/06/09 02:48:43;;;;;;;4.93;2.45;;;;;;;13.81;100.00;92923.38;5089390;28;20169;-79
2023/06/09 02:51:13;;;;;;;5.15;2.45;;;;;;;13.78;100.00;92924.63;5089545;28;20121;-81
2023/06/09 02:53:40;;;;;;;6.00;2.85;;;;;;;13.82;100.00;92922.34;5089347;28;20043;-81
2023/06/09 02:56:07;;;;;;;8.55;3.38;;;;;;;13.84;100.00;92928.06;5089507;28;20044;-81
2023/06/09 02:58:33;;;;;;;5.07;2.72;;;;;;;13.84;100.00;92928.06;5088991;28;20051;-81
2023/06/09 03:01:01;;;;;;;5.93;2.65;;;;;;;13.87;100.00;92930.16;5089381;28;20044;-79
2023/06/09 03:03:28;;;;;;;4.47;2.63;;;;;;;13.86;100.00;92929.41;5089450;28;20047;-78
2023/06/09 03:05:58;;;;;;;5.05;2.45;;;;;;;13.84;100.00;92931.44;5089443;28;20543;-79
2023/06/09 03:08:26;;;;;;;3.95;2.75;;;;;;;13.86;100.00;92934.56;5088425;28;20048;-78
2023/06/09 03:10:54;;;;;;;8.57;3.75;;;;;;;13.78;100.00;92926.44;5089143;28;20518;-78
2023/06/09 03:13:21;;;;;;;5.97;2.63;;;;;;;13.80;100.00;92925.16;5089130;28;20130;-78
2023/06/09 03:15:50;;;;;;;9.18;3.70;;;;;;;13.81;100.00;92929.34;5089249;28;20076;-78
2023/06/09 03:18:16;;;;;;;5.28;2.70;;;;;;;13.85;100.00;92929.63;5088962;28;20040;-76
2023/06/09 03:20:43;;;;;;;6.63;3.17;;;;;;;13.84;100.00;92930.66;5089137;28;20101;-79
2023/06/09 03:23:10;;;;;;;4.00;2.67;;;;;;;13.84;100.00;92938.41;5088687;28;20522;-78
2023/06/09 03:25:39;;;;;;;7.30;3.70;;;;;;;13.85;100.00;92935.56;5088801;28;20405;-78
2023/06/09 03:28:05;;;;;;;4.07;2.17;;;;;;;13.86;100.00;92934.56;5088058;28;20051;-78
2023/06/09 03:30:32;;;;;;;5.40;2.75;;;;;;;13.79;100.00;92926.19;5088743;28;20106;-78
2023/06/09 03:32:59;;;;;;;4.70;2.92;;;;;;;13.78;100.00;92922.03;5088591;28;20048;-77
2023/06/09 03:35:26;;;;;;;10.57;2.95;;;;;;;13.78;100.00;92932.38;5088297;28;20055;-77
2023/06/09 03:37:52;;;;;;;8.10;2.83;;;;;;;13.72;100.00;92928.94;5087720;28;20044;-77
2023/06/09 03:40:19;;;;;;;6.78;3.45;;;;;;;13.76;100.00;92929.25;5088340;28;20048;-77
2023/06/09 03:42:48;;;;;;;5.20;2.83;;;;;;;13.74;100.00;92932.06;5088175;28;20047;-78
2023/06/09 03:45:14;;;;;;;6.88;3.13;;;;;;;13.74;100.00;92937.22;5088221;28;20048;-78
2023/06/09 03:47:41;;;;;;;7.03;3.70;;;;;;;13.75;100.00;92936.22;5088308;28;20504;-77
2023/06/09 03:50:09;;;;;;;6.85;3.58;;;;;;;13.69;100.00;92929.41;5082834;28;20053;-77
2023/06/09 03:52:37;;;;;;;5.10;3.47;;;;;;;13.70;100.00;92932.78;5067589;28;20049;-77
2023/06/09 03:55:04;;;;;;;4.43;2.90;;;;;;;13.72;100.00;92934.09;5067988;28;20078;-78
2023/06/09 03:57:31;;;;;;;6.25;2.90;;;;;;;13.67;100.00;92925.50;5067058;28;20044;-78
2023/06/09 03:59:59;;;;;;;6.78;3.28;;;;;;;13.79;100.00;92936.50;5071276;28;20097;-78
2023/06/09 04:02:26;;;;;;;6.88;3.97;;;;;;;13.83;100.00;92944.56;5074529;28;20033;-78
2023/06/09 04:04:53;;;;;;;8.20;3.85;;;;;;;13.81;100.00;92937.06;5081604;28;20500;-77
2023/06/09 04:07:20;;;;;;;6.68;3.17;;;;;;;13.85;100.00;92930.41;5075609;28;20044;-78
2023/06/09 04:09:47;;;;;;;7.47;3.03;;;;;;;13.84;100.00;92936.59;5087291;28;20134;-78
2023/06/09 04:12:13;;;;;;;10.43;4.82;;;;;;;14.00;100.00;92947.13;5088120;28;20052;-78
2023/06/09 04:14:40;;;;;;;8.20;3.50;;;;;;;14.05;100.00;92944.63;5079257;28;20542;-78
2023/06/09 04:17:08;;;;;;;5.22;3.17;;;;;;;14.12;100.00;92949.63;5087929;28;20048;-78
2023/06/09 04:19:35;;;;;;;7.65;4.05;;;;;;;14.16;100.00;92948.91;5087608;28;20043;-78
2023/06/09 04:22:07;;;;;;;5.47;3.20;;;;;;;14.21;100.00;92950.78;5087401;28;20044;-78
2023/06/09 04:24:34;;;;;;;7.07;3.97;;;;;;;14.27;100.00;92951.63;5087514;28;20051;-77
2023/06/09 04:27:02;;;;;;;6.32;3.45;;;;;;;14.09;100.00;92926.84;5087552;28;20051;-78
2023/06/09 04:29:31;;;;;;;5.50;3.75;;;;;;;14.34;100.00;92949.66;5087028;28;20558;-78
2023/06/09 04:31:59;;;;;;;4.20;2.55;;;;;;;14.37;100.00;92951.78;5086180;28;20492;-77
2023/06/09 04:34:29;;;;;;;5.68;3.20;;;;;;;14.45;100.00;92963.50;5087179;28;20888;-77
2023/06/09 04:36:56;;;;;;;6.22;3.45;;;;;;;14.51;100.00;92961.75;5086618;28;20051;-77
2023/06/09 04:39:25;;;;;;;6.65;3.42;;;;;;;14.46;100.00;92941.78;5084292;28;20067;-78
2023/06/09 04:41:55;;;;;;;6.70;4.03;;;;;;;14.62;100.00;92955.66;5087738;28;20048;-78
2023/06/09 04:44:23;;;;;;;6.07;3.70;;;;;;;14.72;100.00;92955.00;5082924;28;20070;-78
2023/06/09 04:46:51;;;;;;;6.60;4.07;;;;;;;14.80;100.00;92953.81;5079703;28;20059;-78
2023/06/09 04:49:23;;;;;;;7.53;4.18;;;;;;;14.62;100.00;92926.47;5078092;28;20125;-78
2023/06/09 04:51:54;;;;;;;8.30;4.28;;;;;;;14.69;100.00;92951.09;5063922;28;20048;-78
2023/06/09 04:54:22;;;;;;;10.00;4.65;;;;;;;14.82;100.00;92957.72;5087308;28;20062;-78
2023/06/09 04:56:52;;;;;;;8.57;4.43;;;;;;;14.87;100.00;92948.47;5087260;28;20117;-77
2023/06/09 04:59:18;;;;;;;10.18;5.18;;;;;;;14.85;100.00;92953.13;5086561;28;20056;-78
2023/06/09 05:01:46;;;;;;;10.70;5.88;;;;;;;14.91;100.00;92952.91;5087138;28;20430;-77
2023/06/09 05:04:13;;;;;;;10.63;5.13;;;;;;;15.04;100.00;92951.00;5086321;28;20105;-78
2023/06/09 05:06:40;;;;;;;9.82;5.32;;;;;;;15.19;100.00;92956.28;5072203;28;20049;-78
2023/06/09 05:09:09;;;;;;;16.63;7.53;;;;;;;15.25;100.00;92954.56;5087188;28;20076;-77
2023/06/09 05:11:36;;;;;;;16.67;7.90;;;;;;;15.23;100.00;92941.84;5086869;28;20062;-78
2023/06/09 05:14:04;;;;;;;20.98;9.35;;;;;;;15.34;100.00;92929.00;5074778;28;20869;-78
2023/06/09 05:16:31;;;;;;;18.40;8.10;;;;;;;15.49;100.00;92943.88;5084272;28;20055;-78
2023/06/09 05:18:58;;;;;;;16.23;7.75;;;;;;;15.66;100.00;92948.16;5086947;28;20105;-78
2023/06/09 05:21:25;;;;;;;20.13;8.48;;;;;;;15.78;100.00;92946.16;5072781;28;20059;-77
2023/06/09 05:23:53;;;;;;;15.93;7.65;;;;;;;15.94;100.00;92951.50;5087501;28;20072;-77
2023/06/09 05:26:22;;;;;;;19.80;10.07;;;;;;;16.04;100.00;92946.38;5086862;28;20060;-77
2023/06/09 05:28:49;;;;;;;14.57;7.65;;;;;;;16.02;100.00;92931.06;5086844;28;20047;-77
2023/06/09 05:31:16;;;;;;;14.43;7.10;;;;;;;16.09;100.00;92949.00;5073387;28;20044;-77
2023/06/09 05:33:43;;;;;;;17.73;10.02;;;;;;;16.13;100.00;92949.28;5086581;28;20052;-77
2023/06/09 05:36:12;;;;;;;17.90;7.90;;;;;;;16.03;100.00;92913.72;5086718;28;20036;-77
2023/06/09 05:38:38;;;;;;;14.48;7.00;;;;;;;16.25;100.00;92942.09;5086708;28;20044;-78
2023/06/09 05:41:05;;;;;;;16.08;7.53;;;;;;;16.39;100.00;92939.81;5086911;28;20040;-77
2023/06/09 05:43:33;;;;;;;20.85;9.32;;;;;;;16.55;100.00;92937.31;5087168;28;20060;-77
2023/06/09 05:46:00;;;;;;;16.42;7.70;;;;;;;16.78;100.00;92932.72;5087126;28;20044;-78
2023/06/09 05:48:27;;;;;;;14.70;7.70;;;;;;;17.07;100.00;92933.06;5086306;28;20090;-75
2023/06/09 05:50:54;;;;;;;16.65;7.70;;;;;;;17.36;100.00;92926.63;5086379;28;20048;-75
2023/06/09 05:53:21;;;;;;;20.10;8.82;;;;;;;17.65;100.00;92933.91;5086831;28;20044;-75
2023/06/09 05:55:48;;;;;;;15.52;7.95;;;;;;;17.90;100.00;92933.13;5086631;28;20059;-75
2023/06/09 05:58:18;;;;;;;20.55;8.43;;;;;;;18.19;100.00;92931.00;5086233;28;20519;-75
2023/06/09 06:00:47;;;;;;;16.60;8.25;;;;;;;18.54;100.00;92937.13;5086142;28;20059;-75
2023/06/09 06:03:14;;;;;;;16.08;7.82;;;;;;;18.78;100.00;92934.72;5087417;28;20136;-75
2023/06/09 06:05:40;;;;;;;18.17;7.25;;;;;;;19.06;100.00;92942.13;5057630;28;20062;-75
2023/06/09 06:08:07;;;;;;;17.70;7.97;;;;;;;19.34;100.00;92939.88;5083238;28;20075;-75
2023/06/09 06:10:34;;;;;;;18.67;8.02;;;;;;;19.57;100.00;92945.47;5089854;28;20044;-75
2023/06/09 06:13:03;;;;;;;17.98;8.07;;;;;;;19.33;100.00;92946.94;5090324;28;20047;-76
2023/06/09 06:15:30;;;;;;;18.23;6.82;;;;;;;19.20;100.00;92948.31;5088306;28;20047;-78
2023/06/09 06:17:58;;;;;;;18.52;7.15;;;;;;;19.28;100.00;92946.97;5076264;28;20049;-78
2023/06/09 06:20:26;;;;;;;16.10;6.72;;;;;;;19.59;100.00;92946.75;5080015;28;20110;-76
2023/06/09 06:22:54;;;;;;;16.63;6.57;;;;;;;20.10;100.00;92944.81;5089967;28;20142;-76
2023/06/09 06:25:23;;;;;;;21.05;7.38;;;;;;;20.19;100.00;92941.59;5089516;28;20076;-76
2023/06/09 06:27:50;;;;;;;15.85;7.50;;;;;;;20.63;100.00;92945.81;5081201;28;20049;-76
2023/06/09 06:30:17;;;;;;;18.05;7.25;;;;;;;20.92;100.00;92944.97;5084217;28;20052;-76
2023/06/09 06:32:50;;;;;;;16.67;4.50;;;;;;;21.13;100.00;92941.31;5089459;28;20052;-77
2023/06/09 06:35:24;;;;;;;19.13;5.05;;;;;;;21.43;97.93;92950.53;5089631;28;20565;-76
2023/06/09 06:37:51;;;;;;;12.73;3.67;;;;;;;21.64;96.71;92950.25;5089782;28;20047;-76
2023/06/09 06:40:18;;;;;;;10.07;4.47;;;;;;;21.97;98.11;92947.66;5088828;28;20538;-76
2023/06/09 06:42:45;;;;;;;10.18;4.32;;;;;;;22.39;95.86;92947.72;5089093;28;20052;-76
2023/06/09 06:45:12;;;;;;;10.85;4.20;;;;;;;22.78;91.71;92947.53;5075824;28;20420;-76
2023/06/09 06:47:40;;;;;;;10.57;4.18;;;;;;;22.88;89.24;92955.19;5078652;28;20094;-76
2023/06/09 06:50:09;;;;;;;13.32;4.18;;;;;;;23.22;88.93;92947.94;5070656;28;20488;-77
2023/06/09 06:52:37;;;;;;;14.63;4.07;;;;;;;23.05;86.63;92944.09;5078635;28;20049;-77
2023/06/09 06:55:05;;;;;;;10.75;3.60;;;;;;;22.73;86.41;92937.94;5082894;28;20056;-78
2023/06/09 06:57:31;;;;;;;9.85;4.68;;;;;;;23.14;86.99;92948.66;5088986;28;20564;-78
2023/06/09 06:59:58;;;;;;;10.63;4.32;;;;;;;22.71;86.24;92949.78;5088799;28;20052;-78
2023/06/09 07:02:25;;;;;;;8.63;3.53;;;;;;;22.49;87.48;92948.59;5088266;28;20044;-78
2023/06/09 07:04:52;;;;;;;16.77;4.10;;;;;;;22.68;88.27;92944.06;5087323;28;20039;-77
2023/06/09 07:07:18;;;;;;;15.38;4.55;;;;;;;22.45;89.27;92942.38;5068652;28;20540;-77
2023/06/09 07:09:47;;;;;;;11.50;4.43;;;;;;;21.55;91.90;92916.16;5083384;28;20531;-77
2023/06/09 07:12:13;;;;;;;11.93;3.53;;;;;;;21.99;91.97;92937.69;5088792;28;20044;-77
2023/06/09 07:14:40;;;;;;;11.27;3.78;;;;;;;21.33;92.40;92920.13;5075127;28;20090;-78
2023/06/09 07:17:07;;;;;;;14.02;6.47;;;;;;;21.98;90.30;92943.97;5070443;28;20041;-81
2023/06/09 07:19:35;;;;;;;10.25;4.05;;;;;;;22.20;91.82;92936.53;5068660;28;20048;-78
2023/06/09 07:22:01;;;;;;;10.55;3.65;;;;;;;22.48;92.05;92941.78;5078981;28;20488;-78
2023/06/09 07:24:30;;;;;;;8.52;3.30;;;;;;;22.49;88.10;92938.88;5074862;28;20044;-79
2023/06/09 07:26:58;;;;;;;9.73;4.00;;;;;;;22.66;85.82;92945.41;5088547;28;20063;-78
2023/06/09 07:29:25;;;;;;;11.55;2.85;;;;;;;22.98;85.03;92940.34;5088036;28;20044;-78
2023/06/09 07:31:52;;;;;;;11.32;4.43;;;;;;;22.87;82.97;92942.41;5087790;28;20512;-79
2023/06/09 07:34:18;;;;;;;7.20;2.80;;;;;;;23.40;85.40;92929.78;5088089;28;20454;-79
2023/06/09 07:36:50;;;;;;;11.02;3.28;;;;;;;23.45;84.55;92929.66;5087804;28;20518;-78
2023/06/09 07:39:17;;;;;;;8.38;3.45;;;;;;;24.01;81.16;92924.91;5084280;28;20044;-81
2023/06/09 07:41:44;;;;;;;6.85;3.67;;;;;;;23.16;79.65;92931.56;5067448;28;20509;-78
2023/06/09 07:44:12;;;;;;;7.63;2.58;;;;;;;23.64;78.79;92933.97;5085858;28;20107;-79
2023/06/09 07:46:39;;;;;;;5.93;2.28;;;;;;;24.26;75.71;92930.59;5086520;28;20102;-80
2023/06/09 07:49:06;;;;;;;9.10;2.95;;;;;;;23.74;77.34;92928.44;5087057;28;20040;-80
2023/06/09 07:51:36;;;;;;;9.82;2.90;;;;;;;24.07;77.05;92925.56;5088250;28;20075;-80
2023/06/09 07:54:04;;;;;;;6.30;2.67;;;;;;;24.52;79.87;92932.56;5087541;28;20040;-80
2023/06/09 07:56:33;;;;;;;6.15;3.10;;;;;;;24.25;73.53;92939.56;5067058;28;20466;-80
2023/06/09 07:58:59;;;;;;;6.72;3.30;;;;;;;24.45;73.46;92934.09;5071924;28;20059;-80
2023/06/09 08:01:29;;;;;;;7.60;2.97;;;;;;;24.12;73.95;92930.69;5088070;28;20048;-79
2023/06/09 08:03:56;;;;;;;4.18;2.45;;;;;;;24.38;74.17;92924.00;5088253;28;20577;-80
2023/06/09 08:06:23;;;;;;;7.18;2.90;;;;;;;24.65;73.58;92940.63;5076114;28;20059;-79
2023/06/09 08:09:13;;;;;;;5.40;2.53;;;;;;;24.66;73.31;92935.06;5087025;28;20071;-80
2023/06/09 08:11:40;;;;;;;5.70;2.55;;;;;;;23.52;72.97;92838.28;5078852;28;20048;-80
2023/06/09 08:14:15;;;;;;;7.85;3.03;;;;;;;24.18;71.14;92926.09;5087260;28;20071;-80
2023/06/09 08:16:49;;;;;;;9.57;3.08;;;;;;;24.17;73.02;92840.59;5081043;28;20051;-81
2023/06/09 08:19:22;;;;;;;7.47;2.58;;;;;;;23.78;71.10;92785.19;5068692;28;20059;-81
2023/06/09 08:21:53;;;;;;;4.63;2.30;;;;;;;25.15;74.19;92931.66;5066566;28;20075;-81
2023/06/09 08:24:26;;;;;;;5.70;2.40;;;;;;;24.94;71.56;92840.28;5087835;28;20162;-81
2023/06/09 08:27:16;;;;;;;4.55;2.88;;;;;;;25.35;68.32;92830.34;5086997;28;20048;-83
2023/06/09 08:29:45;;;;;;;5.43;3.35;;;;;;;26.01;68.71;92843.53;5088165;28;20571;-80
2023/06/09 08:35:25;;;;;;;7.38;2.55;;;;;;;26.10;64.95;92817.16;5062102;28;20058;-82
2023/06/09 08:38:06;;;;;;;5.60;2.33;;;;;;;26.71;66.69;92900.38;5085114;28;20126;-83
2023/06/09 08:44:01;;;;;;;7.88;2.78;;;;;;;27.36;60.83;92917.78;5076631;28;20048;-82
2023/06/09 08:46:46;;;;;;;10.02;2.38;;;;;;;26.75;62.20;92895.22;5068644;28;20544;-82
2023/06/09 08:49:15;;;;;;;3.58;1.70;;;;;;;26.70;58.15;92919.88;5087504;28;20051;-81
2023/06/09 08:51:43;;;;;;;4.65;2.15;;;;;;;27.10;56.98;92908.19;5087810;28;20048;-82
2023/06/09 08:54:13;;;;;;;6.10;1.92;;;;;;;27.59;58.75;92906.91;5087435;28;20044;-84
2023/06/09 08:56:40;;;;;;;4.70;2.17;;;;;;;27.78;54.76;92910.91;5087658;28;20052;-82
2023/06/09 08:59:07;;;;;;;5.25;2.38;;;;;;;27.19;55.88;92906.28;5087691;28;20456;-81
2023/06/09 09:01:36;;;;;;;10.93;2.25;;;;;;;27.27;55.53;92906.53;5088335;28;20540;-79
2023/06/09 09:04:03;;;;;;;3.63;1.83;;;;;;;27.34;56.69;92896.22;5087992;28;20055;-83
2023/06/09 09:06:31;;;;;;;6.63;2.38;;;;;;;27.70;56.03;92902.78;5073340;28;20062;-83
2023/06/09 09:08:58;;;;;;;7.35;2.10;;;;;;;27.82;55.12;92903.91;5087863;28;20075;-82
2023/06/09 09:11:26;;;;;;;3.65;2.00;;;;;;;26.61;56.60;92908.63;5087270;28;20066;-80
2023/06/09 09:13:52;;;;;;;3.85;1.83;;;;;;;25.96;54.77;92893.69;5087875;28;20055;-82
2023/06/09 09:16:19;;;;;;;3.95;1.33;;;;;;;25.92;54.42;92906.69;5087451;28;20457;-81
2023/06/09 09:18:48;;;;;;;5.38;2.65;;;;;;;26.00;57.85;92895.38;5087327;28;20044;-82
2023/06/09 09:21:22;;;;;;;3.42;2.33;;;;;;;26.30;59.78;92870.19;5087132;28;20527;-82
2023/06/09 09:23:57;;;;;;;2.85;1.92;;;;;;;26.93;61.70;92888.00;5087248;28;20059;-81
2023/06/09 09:26:28;;;;;;;3.47;2.00;;;;;;;27.50;61.20;92875.31;5086849;28;20157;-82
2023/06/09 09:28:56;;;;;;;4.43;1.70;;;;;;;27.86;55.55;92892.34;5087382;28;20492;-83
2023/06/09 09:31:32;;;;;;;27.88;2.53;;;;;;;27.83;55.80;92885.09;5087279;28;20414;-82
2023/06/09 09:33:59;;;;;;;3.13;1.67;;;;;;;28.18;52.14;92888.47;5087386;28;20553;-83
2023/06/09 09:36:27;;;;;;;5.57;1.98;;;;;;;27.93;52.31;92891.03;5060771;28;20123;-83
2023/06/09 09:38:57;;;;;;;5.47;1.50;;;;;;;27.37;51.27;92868.44;5091236;28;20048;-83
2023/06/09 09:41:25;;;;;;;4.22;2.20;;;;;;;27.72;54.14;92884.75;5091066;28;20040;-84
2023/06/09 09:43:56;;;;;;;2.72;1.45;;;;;;;28.39;52.39;92889.16;5090578;28;20083;-83
2023/06/09 09:46:23;;;;;;;8.07;2.03;;;;;;;27.87;50.94;92888.63;5091317;28;20155;-82
2023/06/09 09:48:50;;;;;;;2.42;1.30;;;;;;;27.30;52.05;92879.53;5091220;28;20131;-82
2023/06/09 09:51:20;;;;;;;3.67;1.77;;;;;;;26.95;51.12;92881.31;5090100;28;20519;-83
2023/06/09 09:53:47;;;;;;;5.60;1.70;;;;;;;27.39;52.11;92888.13;5090095;28;20565;-82
2023/06/09 09:56:19;;;;;;;2.67;1.20;;;;;;;26.68;52.37;92879.91;5090055;28;20055;-82
2023/06/09 09:58:48;;;;;;;3.22;1.40;;;;;;;26.48;53.51;92879.56;5090215;28;20390;-83
2023/06/09 10:01:17;;;;;;;3.03;1.70;;;;;;;26.57;50.53;92873.47;5090255;28;20051;-83
2023/06/09 10:03:45;;;;;;;2.90;2.10;;;;;;;27.22;53.79;92873.22;5089683;28;20048;-83
2023/06/09 10:06:15;;;;;;;5.32;1.60;;;;;;;27.28;50.22;92866.66;5078922;28;20071;-82
2023/06/09 10:08:42;;;;;;;3.15;1.67;;;;;;;27.54;51.17;92849.06;5089503;28;20048;-83
2023/06/09 10:11:10;;;;;;;4.82;1.58;;;;;;;27.42;50.28;92860.31;5089941;28;20140;-81
2023/06/09 10:13:38;;;;;;;4.72;1.75;;;;;;;27.85;51.89;92867.06;5089901;28;20040;-83
2023/06/09 10:16:07;;;;;;;5.82;2.33;;;;;;;28.39;52.39;92846.91;5089650;28;20492;-83
2023/06/09 10:18:36;;;;;;;4.32;1.85;;;;;;;28.65;49.77;92858.22;5090342;28;20047;-83
2023/06/09 10:21:03;;;;;;;3.53;1.98;;;;;;;28.53;49.51;92846.56;5089327;28;20043;-82
2023/06/09 10:23:30;;;;;;;2.67;1.40;;;;;;;28.83;48.89;92863.25;5089609;28;20591;-83
2023/06/09 10:25:57;;;;;;;3.30;1.60;;;;;;;28.97;49.70;92858.38;5089869;28;20055;-82
2023/06/09 10:28:25;;;;;;;2.25;1.23;;;;;;;29.15;51.11;92850.94;5089666;28;20088;-84
2023/06/09 10:30:55;;;;;;;4.25;1.80;;;;;;;29.22;49.80;92847.72;5088822;28;20455;-82
2023/06/09 10:33:26;;;;;;;3.20;1.63;;;;;;;29.51;48.90;92837.16;5089610;28;20055;-83
2023/06/09 10:35:57;;;;;;;2.67;1.85;;;;;;;29.72;47.47;92840.34;5082631;28;20417;-83
2023/06/09 10:38:30;;;;;;;2.22;1.27;;;;;;;29.84;44.73;92842.16;5083151;28;20048;-83
2023/06/09 10:41:11;;;;;;;3.35;1.75;;;;;;;30.08;47.20;92839.69;5089765;28;20558;-82
2023/06/09 10:43:53;;;;;;;6.00;2.72;;;;;;;29.73;45.47;92831.31;5089371;28;20097;-83
2023/06/09 10:46:40;;;;;;;19.55;7.22;;;;;;;29.64;47.82;92821.97;5086847;28;20044;-82
2023/06/09 10:49:07;;;;;;;4.78;2.40;;;;;;;29.43;46.94;92836.19;5058356;28;20052;-82
2023/06/09 10:51:40;;;;;;;3.83;2.00;;;;;;;29.51;46.68;92827.34;5084893;28;20138;-82
2023/06/09 10:54:24;;;;;;;4.88;2.13;;;;;;;29.42;50.55;92822.19;5088707;28;20131;-81
2023/06/09 10:56:56;;;;;;;2.35;1.30;;;;;;;29.61;46.43;92826.06;5088543;28;20047;-81
2023/06/09 10:59:53;;;;;;;2.60;1.50;;;;;;;29.78;48.33;92821.56;5089105;28;20440;-81
2023/06/09 11:02:24;;;;;;;2.78;1.40;;;;;;;29.30;48.61;92809.78;5089178;28;20052;-82
2023/06/09 11:04:52;;;;;;;5.85;2.13;;;;;;;29.39;46.32;92822.84;5083999;28;20130;-81
2023/06/09 11:07:20;;;;;;;2.53;1.40;;;;;;;27.90;47.00;92826.47;5080275;28;20070;-79
2023/06/09 11:10:35;;;;;;;11.80;1.70;;;;;;;27.84;46.25;92820.66;5087328;28;20495;-81
2023/06/09 11:13:03;;;;;;;3.72;1.98;;;;;;;27.78;48.24;92808.78;5087934;28;20123;-81
2023/06/09 11:16:01;;;;;;;3.17;1.17;;;;;;;28.17;49.17;92805.06;5088872;28;20071;-81
2023/06/09 11:18:30;;;;;;;2.30;1.50;;;;;;;27.80;47.67;92813.72;5088274;28;20090;-81
2023/06/09 11:21:28;;;;;;;3.80;1.63;;;;;;;27.10;51.97;92815.94;5088008;28;20054;-80
2023/06/09 11:24:03;;;;;;;4.85;1.70;;;;;;;27.02;50.38;92793.81;5088179;28;20447;-80
2023/06/09 11:26:32;;;;;;;4.07;2.00;;;;;;;27.44;51.14;92805.41;5088437;28;20415;-80
2023/06/09 11:29:00;;;;;;;2.22;1.50;;;;;;;27.78;53.11;92806.16;5088145;28;20043;-80
2023/06/09 11:31:28;;;;;;;3.47;1.70;;;;;;;27.83;50.22;92791.97;5086030;28;20136;-79
2023/06/09 11:33:57;;;;;;;2.42;1.40;;;;;;;27.63;50.88;92807.53;5088593;28;20056;-81
2023/06/09 11:36:27;;;;;;;3.33;2.28;;;;;;;27.12;52.96;92794.53;5087470;28;20067;-80
2023/06/09 11:39:00;;;;;;;3.00;1.33;;;;;;;26.98;54.73;92806.09;5088451;28;20048;-80
2023/06/09 11:41:28;;;;;;;3.60;1.70;;;;;;;26.48;53.23;92803.19;5087416;28;20040;-80
2023/06/09 11:43:57;;;;;;;2.70;1.70;;;;;;;26.61;53.33;92792.75;5088471;28;20047;-81